Time;durP1;ratioP1;P1;durP2;ratioP2;P2;SDS_P1;SDS_P2;PMS_P1;PMS_P2;Temp;Humidity;BMP_temperature;BMP_pressure;BME280_temperature;BME280_humidity;BME280_pressure;Samples;Min_cycle;Max_cycle;Signal;HPM_P1;HPM_P2
2023/08/25 00:01:16;;;;;;;13.90;10.40;;;17.60;99.90;;;;;;4864821;29;20824;-81
2023/08/25 00:03:42;;;;;;;19.07;10.53;;;17.60;99.90;;;;;;4864469;29;20469;-82
2023/08/25 00:06:07;;;;;;;12.47;9.10;;;17.60;99.90;;;;;;4863291;29;20400;-82
2023/08/25 00:08:33;;;;;;;13.60;9.40;;;17.70;99.90;;;;;;4864241;29;20694;-82
2023/08/25 00:10:58;;;;;;;16.63;10.30;;;17.70;99.90;;;;;;4864558;29;20192;-82
2023/08/25 00:13:24;;;;;;;15.47;9.27;;;17.70;99.90;;;;;;4864627;29;20671;-82
2023/08/25 00:15:50;;;;;;;15.67;11.13;;;17.70;99.90;;;;;;4864709;29;20220;-82
2023/08/25 00:18:16;;;;;;;12.53;10.03;;;17.70;99.90;;;;;;4864639;29;20600;-82
2023/08/25 00:20:42;;;;;;;14.23;11.00;;;17.60;99.90;;;;;;4864159;29;20900;-81
2023/08/25 00:23:08;;;;;;;15.23;10.87;;;17.60;99.90;;;;;;4864542;29;20439;-82
2023/08/25 00:25:34;;;;;;;13.07;11.23;;;17.60;99.90;;;;;;4864592;29;20603;-82
2023/08/25 00:28:00;;;;;;;19.67;11.57;;;17.60;99.90;;;;;;4864466;29;20421;-82
2023/08/25 00:30:25;;;;;;;13.90;10.87;;;17.60;99.90;;;;;;4864159;29;20228;-82
2023/08/25 00:32:51;;;;;;;14.93;10.97;;;17.60;99.90;;;;;;4864503;29;20387;-82
2023/08/25 00:35:17;;;;;;;18.70;10.67;;;17.50;99.90;;;;;;4863741;29;20285;-82
2023/08/25 00:37:42;;;;;;;12.00;10.53;;;17.60;99.90;;;;;;4863983;29;20188;-82
2023/08/25 00:40:09;;;;;;;15.00;10.70;;;17.50;99.90;;;;;;4864113;29;20192;-82
2023/08/25 00:42:34;;;;;;;14.80;11.10;;;17.50;99.90;;;;;;4863820;29;20192;-82
2023/08/25 00:45:00;;;;;;;14.70;10.70;;;17.50;99.90;;;;;;4863986;29;20418;-82
2023/08/25 00:47:26;;;;;;;16.43;10.10;;;17.50;99.90;;;;;;4863700;29;20196;-82
2023/08/25 00:49:52;;;;;;;25.63;10.97;;;17.40;99.90;;;;;;4864366;29;20641;-82
2023/08/25 00:52:19;;;;;;;11.83;9.00;;;17.40;99.90;;;;;;4864003;29;20241;-82
2023/08/25 00:54:48;;;;;;;11.20;9.07;;;17.40;99.90;;;;;;4863658;29;20411;-82
2023/08/25 00:57:14;;;;;;;12.10;8.37;;;17.40;99.90;;;;;;4864022;29;20404;-82
2023/08/25 00:59:40;;;;;;;16.20;10.07;;;17.40;99.90;;;;;;4863571;29;20458;-82
2023/08/25 01:02:08;;;;;;;13.20;8.10;;;17.40;99.90;;;;;;4863877;29;20192;-82
2023/08/25 01:04:34;;;;;;;12.77;8.90;;;17.40;99.90;;;;;;4863335;29;20503;-82
2023/08/25 01:07:00;;;;;;;14.53;8.27;;;17.40;99.90;;;;;;4863661;29;20463;-82
2023/08/25 01:09:26;;;;;;;15.27;8.30;;;17.30;99.90;;;;;;4862045;29;20468;-82
2023/08/25 01:12:04;;;;;;;11.00;7.07;;;17.30;99.90;;;;;;4863833;29;20417;-82
2023/08/25 01:14:35;;;;;;;9.10;6.90;;;17.30;99.90;;;;;;4863471;29;20396;-82
2023/08/25 01:17:18;;;;;;;8.67;6.40;;;17.20;99.90;;;;;;4863106;29;20482;-82
2023/08/25 01:19:53;;;;;;;8.33;6.70;;;17.20;99.90;;;;;;4863453;29;20509;-82
2023/08/25 01:22:45;;;;;;;8.50;6.30;;;17.30;99.90;;;;;;4863487;29;20411;-82
2023/08/25 01:25:28;;;;;;;7.63;6.83;;;17.20;99.90;;;;;;4863434;29;20409;-82
2023/08/25 01:28:04;;;;;;;7.73;6.90;;;17.20;99.90;;;;;;4863058;29;20451;-82
2023/08/25 01:30:35;;;;;;;6.33;5.53;;;17.10;99.90;;;;;;4862161;29;20383;-82
2023/08/25 01:33:00;;;;;;;7.77;5.60;;;17.10;99.90;;;;;;4863742;29;20403;-82
2023/08/25 01:35:41;;;;;;;6.47;5.57;;;17.10;99.90;;;;;;4862856;29;20399;-82
2023/08/25 01:38:27;;;;;;;7.17;5.60;;;17.10;99.90;;;;;;4863202;29;20423;-82
2023/08/25 01:41:22;;;;;;;7.30;5.50;;;17.10;99.90;;;;;;4863108;29;20836;-82
2023/08/25 01:43:51;;;;;;;12.47;5.93;;;17.00;99.90;;;;;;4858737;29;20550;-82
2023/08/25 01:46:18;;;;;;;9.30;5.50;;;17.00;99.90;;;;;;4862850;29;20473;-81
2023/08/25 01:48:51;;;;;;;13.93;5.03;;;17.00;99.90;;;;;;4862841;29;20506;-82
2023/08/25 01:51:17;;;;;;;8.00;5.93;;;17.00;99.90;;;;;;4862969;29;20784;-82
2023/08/25 01:53:54;;;;;;;6.73;5.07;;;17.00;99.90;;;;;;4862741;29;20812;-82
2023/08/25 01:56:19;;;;;;;7.07;5.20;;;17.10;99.90;;;;;;4863180;29;20851;-82
2023/08/25 01:58:45;;;;;;;13.50;5.60;;;17.10;99.90;;;;;;4862557;29;20487;-82
2023/08/25 02:01:11;;;;;;;6.90;5.70;;;17.10;99.90;;;;;;4862555;29;20199;-82
2023/08/25 02:03:36;;;;;;;6.73;5.07;;;17.10;99.90;;;;;;4862204;29;20208;-81
2023/08/25 02:06:02;;;;;;;6.53;4.73;;;17.10;99.90;;;;;;4862524;29;20199;-81
2023/08/25 02:08:28;;;;;;;5.80;4.33;;;17.10;99.90;;;;;;4862440;29;20246;-83
2023/08/25 02:10:53;;;;;;;9.10;4.17;;;17.10;99.90;;;;;;4862397;29;20199;-81
2023/08/25 02:13:19;;;;;;;6.70;3.87;;;17.10;99.90;;;;;;4862164;29;20705;-81
2023/08/25 02:15:46;;;;;;;8.13;5.23;;;17.20;99.90;;;;;;4862408;29;20216;-82
2023/08/25 02:18:12;;;;;;;6.70;4.80;;;17.20;99.90;;;;;;4862565;29;20826;-81
2023/08/25 02:20:40;;;;;;;7.77;4.60;;;17.20;99.90;;;;;;4861908;29;20404;-81
2023/08/25 02:23:07;;;;;;;8.97;4.83;;;17.20;99.90;;;;;;4862475;29;20443;-82
2023/08/25 02:25:33;;;;;;;11.70;4.33;;;17.10;99.90;;;;;;4862243;29;20396;-82
2023/08/25 02:27:59;;;;;;;8.17;5.20;;;17.10;99.90;;;;;;4861674;29;20396;-82
2023/08/25 02:30:25;;;;;;;6.53;4.50;;;17.10;99.90;;;;;;4862467;29;20425;-81
2023/08/25 02:32:50;;;;;;;8.13;4.73;;;17.10;99.90;;;;;;4862132;29;20750;-81
2023/08/25 02:35:16;;;;;;;8.27;5.87;;;17.10;99.90;;;;;;4862616;29;20242;-81
2023/08/25 02:38:04;;;;;;;7.07;5.20;;;17.10;99.90;;;;;;4862029;29;20188;-81
2023/08/25 02:40:30;;;;;;;8.90;5.27;;;17.10;99.90;;;;;;4861862;29;20184;-82
2023/08/25 02:42:58;;;;;;;7.50;5.40;;;17.10;99.90;;;;;;4862132;29;20490;-82
2023/08/25 02:45:24;;;;;;;7.80;5.10;;;17.10;99.90;;;;;;4862130;29;20435;-81
2023/08/25 02:47:50;;;;;;;15.67;5.30;;;17.10;99.90;;;;;;4861750;29;20452;-81
2023/08/25 02:50:15;;;;;;;8.50;5.00;;;17.00;99.90;;;;;;4862230;29;20463;-81
2023/08/25 02:52:41;;;;;;;7.17;5.10;;;17.00;99.90;;;;;;4861601;29;20413;-82
2023/08/25 02:55:07;;;;;;;8.70;5.00;;;17.00;99.90;;;;;;4861693;29;20192;-82
2023/08/25 02:57:32;;;;;;;8.80;4.10;;;17.00;99.90;;;;;;4861786;29;20184;-82
2023/08/25 02:59:58;;;;;;;5.60;5.00;;;17.10;99.90;;;;;;4861644;29;20191;-82
2023/08/25 03:02:23;;;;;;;6.30;5.17;;;17.10;99.90;;;;;;4862450;29;20191;-82
2023/08/25 03:04:49;;;;;;;5.80;4.73;;;17.10;99.90;;;;;;4861537;29;20548;-82
2023/08/25 03:07:14;;;;;;;7.43;5.00;;;17.10;99.90;;;;;;4860811;29;20186;-82
2023/08/25 03:09:40;;;;;;;7.70;4.70;;;17.10;99.90;;;;;;4861290;29;20273;-82
2023/08/25 03:12:06;;;;;;;5.60;4.53;;;17.00;99.90;;;;;;4861848;29;20188;-82
2023/08/25 03:14:32;;;;;;;7.03;4.70;;;17.00;99.90;;;;;;4860876;29;20200;-82
2023/08/25 03:16:57;;;;;;;4.97;4.23;;;17.00;99.90;;;;;;4861595;29;20416;-82
2023/08/25 03:19:23;;;;;;;7.70;4.33;;;17.00;99.90;;;;;;4862150;29;20192;-82
2023/08/25 03:21:48;;;;;;;6.00;4.23;;;17.00;99.90;;;;;;4861289;29;20272;-82
2023/08/25 03:24:14;;;;;;;7.30;4.10;;;17.00;99.90;;;;;;4861803;29;20710;-82
2023/08/25 03:26:39;;;;;;;4.77;4.27;;;17.00;99.90;;;;;;4861493;29;20185;-82
2023/08/25 03:29:05;;;;;;;7.63;4.40;;;17.00;99.90;;;;;;4861692;29;20553;-82
2023/08/25 03:31:31;;;;;;;9.43;4.37;;;16.90;99.90;;;;;;4861208;29;20185;-83
2023/08/25 03:33:56;;;;;;;6.70;4.27;;;16.90;99.90;;;;;;4861546;29;20204;-82
2023/08/25 03:36:22;;;;;;;5.77;4.90;;;16.90;99.90;;;;;;4861602;29;20236;-81
2023/08/25 03:38:47;;;;;;;4.70;4.30;;;16.90;99.90;;;;;;4861318;29;20184;-82
2023/08/25 03:41:13;;;;;;;4.90;4.40;;;17.00;99.90;;;;;;4864919;29;20200;-82
2023/08/25 03:43:38;;;;;;;5.13;4.50;;;16.90;99.90;;;;;;4864521;29;20215;-82
2023/08/25 03:46:04;;;;;;;7.97;4.50;;;17.00;99.90;;;;;;4864777;29;20192;-82
2023/08/25 03:48:29;;;;;;;5.20;4.70;;;17.00;99.90;;;;;;4865007;29;20260;-82
2023/08/25 03:50:55;;;;;;;8.40;5.23;;;17.00;99.90;;;;;;4864517;29;20188;-82
2023/08/25 03:53:21;;;;;;;8.17;5.20;;;17.00;99.90;;;;;;4865018;29;20254;-82
2023/08/25 03:55:47;;;;;;;7.67;5.00;;;17.00;99.90;;;;;;4864540;29;20187;-82
2023/08/25 03:58:13;;;;;;;4.97;4.47;;;17.00;99.90;;;;;;4864566;29;20216;-82
2023/08/25 04:00:39;;;;;;;5.40;4.90;;;17.00;99.90;;;;;;4864492;29;20189;-82
2023/08/25 04:03:06;;;;;;;10.87;5.20;;;17.00;99.90;;;;;;4864751;29;20829;-82
2023/08/25 04:05:32;;;;;;;6.40;5.50;;;17.00;99.90;;;;;;4864384;29;20653;-85
2023/08/25 04:07:57;;;;;;;7.07;5.30;;;16.90;99.90;;;;;;4864159;29;20554;-82
2023/08/25 04:10:24;;;;;;;7.80;4.90;;;16.90;99.90;;;;;;4863786;29;20429;-82
2023/08/25 04:12:49;;;;;;;9.20;5.30;;;17.00;99.90;;;;;;4864342;29;20187;-82
2023/08/25 04:15:15;;;;;;;5.63;4.93;;;17.00;99.90;;;;;;4864230;29;20422;-82
2023/08/25 04:17:41;;;;;;;7.03;5.10;;;17.00;99.90;;;;;;4864107;29;20180;-83
2023/08/25 04:20:06;;;;;;;9.53;5.17;;;17.00;99.90;;;;;;4863331;29;20184;-82
2023/08/25 04:22:32;;;;;;;10.80;6.27;;;17.00;99.90;;;;;;4864329;29;20271;-82
2023/08/25 04:24:58;;;;;;;8.17;5.80;;;17.10;99.90;;;;;;4862853;29;20491;-82
2023/08/25 04:27:23;;;;;;;9.43;4.80;;;17.20;99.90;;;;;;4864170;29;20192;-82
2023/08/25 04:29:51;;;;;;;6.47;5.83;;;17.20;99.90;;;;;;4863962;29;20645;-82
2023/08/25 04:32:17;;;;;;;10.60;5.70;;;17.20;99.90;;;;;;4864273;29;20288;-82
2023/08/25 04:34:42;;;;;;;7.43;5.80;;;17.20;99.90;;;;;;4863922;29;20515;-82
2023/08/25 04:37:08;;;;;;;10.97;5.60;;;17.20;99.90;;;;;;4863953;29;20189;-81
2023/08/25 04:39:33;;;;;;;8.57;5.37;;;17.20;99.90;;;;;;4863881;29;20196;-83
2023/08/25 04:42:00;;;;;;;7.27;5.70;;;17.20;99.90;;;;;;4863651;29;20196;-82
2023/08/25 04:44:25;;;;;;;9.50;6.20;;;17.20;99.90;;;;;;4864127;29;20239;-82
2023/08/25 04:46:51;;;;;;;6.37;5.77;;;17.30;99.90;;;;;;4863955;29;20422;-82
2023/08/25 04:49:16;;;;;;;6.80;5.73;;;17.30;99.90;;;;;;4862623;29;20221;-81
2023/08/25 04:51:42;;;;;;;8.10;7.00;;;17.30;99.90;;;;;;4862682;29;20188;-82
2023/08/25 04:54:09;;;;;;;7.10;5.80;;;17.40;99.90;;;;;;4863856;29;20203;-82
2023/08/25 04:56:34;;;;;;;9.73;5.87;;;17.40;99.90;;;;;;4863855;29;20180;-84
2023/08/25 04:59:00;;;;;;;8.70;5.57;;;17.40;99.90;;;;;;4863918;29;20410;-82
2023/08/25 05:01:25;;;;;;;9.90;6.30;;;17.50;99.90;;;;;;4863745;29;20599;-82
2023/08/25 05:03:51;;;;;;;7.17;5.70;;;17.40;99.90;;;;;;4862253;29;20219;-82
2023/08/25 05:06:17;;;;;;;6.87;6.20;;;17.50;99.90;;;;;;4863599;29;20570;-82
2023/08/25 05:08:42;;;;;;;11.63;6.40;;;17.50;99.90;;;;;;4863490;29;20236;-82
2023/08/25 05:11:09;;;;;;;7.80;5.87;;;17.50;99.90;;;;;;4863603;29;20180;-82
2023/08/25 05:13:34;;;;;;;6.50;5.83;;;17.50;99.90;;;;;;4863814;29;20184;-82
2023/08/25 05:16:00;;;;;;;8.97;5.83;;;17.60;99.90;;;;;;4862806;29;20907;-82
2023/08/25 05:18:26;;;;;;;7.90;6.30;;;17.60;99.90;;;;;;4863473;29;20196;-82
2023/08/25 05:20:58;;;;;;;8.70;5.80;;;17.60;99.90;;;;;;4863064;29;20199;-82
2023/08/25 05:23:24;;;;;;;7.30;6.50;;;17.70;99.90;;;;;;4863305;29;20212;-82
2023/08/25 05:25:49;;;;;;;8.80;6.20;;;17.70;99.90;;;;;;4863072;29;20435;-82
2023/08/25 05:28:15;;;;;;;8.93;6.80;;;17.80;99.90;;;;;;4862646;29;20180;-83
2023/08/25 05:30:44;;;;;;;9.60;6.17;;;17.80;99.90;;;;;;4861597;29;20192;-88
2023/08/25 05:33:11;;;;;;;8.20;6.20;;;17.90;99.90;;;;;;4862516;29;20196;-88
2023/08/25 05:35:37;;;;;;;8.07;6.80;;;17.80;99.90;;;;;;4862888;29;20419;-88
2023/08/25 05:38:03;;;;;;;12.73;6.10;;;17.90;99.90;;;;;;4862606;29;20445;-88
2023/08/25 05:40:28;;;;;;;7.63;6.43;;;17.90;99.90;;;;;;4862667;29;20525;-88
2023/08/25 05:42:54;;;;;;;7.00;5.97;;;17.90;99.90;;;;;;4862340;29;20845;-88
2023/08/25 05:45:20;;;;;;;15.23;6.37;;;18.00;99.90;;;;;;4862586;29;20193;-88
2023/08/25 05:47:45;;;;;;;8.43;6.37;;;18.10;99.90;;;;;;4860954;29;20637;-89
2023/08/25 05:50:11;;;;;;;9.90;5.80;;;18.10;99.90;;;;;;4862661;29;20196;-88
2023/08/25 05:52:36;;;;;;;7.13;6.10;;;18.10;99.90;;;;;;4862320;29;20180;-88
2023/08/25 05:55:02;;;;;;;7.47;6.77;;;18.20;99.90;;;;;;4862731;29;20677;-89
2023/08/25 05:57:28;;;;;;;8.57;6.70;;;18.30;99.90;;;;;;4862162;29;20192;-88
2023/08/25 05:59:53;;;;;;;7.23;6.63;;;18.30;99.90;;;;;;4862096;29;20196;-89
2023/08/25 06:02:19;;;;;;;7.47;6.43;;;18.40;99.90;;;;;;4861260;29;20233;-89
2023/08/25 06:04:44;;;;;;;6.60;6.00;;;18.50;99.90;;;;;;4860564;29;20242;-89
2023/08/25 06:07:10;;;;;;;12.70;7.27;;;18.60;99.90;;;;;;4862141;29;20264;-89
2023/08/25 06:09:36;;;;;;;9.90;7.20;;;18.70;99.90;;;;;;4861026;29;20246;-89
2023/08/25 06:12:01;;;;;;;9.03;6.23;;;18.70;99.90;;;;;;4861740;29;20512;-89
2023/08/25 06:14:30;;;;;;;7.20;6.13;;;18.70;99.90;;;;;;4862304;29;20540;-89
2023/08/25 06:17:00;;;;;;;7.57;5.60;;;18.80;99.90;;;;;;4862349;29;20558;-88
2023/08/25 06:19:25;;;;;;;6.70;6.10;;;18.90;99.90;;;;;;4874202;29;20757;-88
2023/08/25 06:21:51;;;;;;;7.10;5.67;;;19.00;99.90;;;;;;4863796;29;20487;-88
2023/08/25 06:24:16;;;;;;;6.30;5.77;;;19.10;99.90;;;;;;4864066;29;20216;-89
2023/08/25 06:26:42;;;;;;;7.63;6.00;;;19.20;99.90;;;;;;4865462;29;20200;-87
2023/08/25 06:29:08;;;;;;;6.07;5.47;;;19.20;99.90;;;;;;4865502;29;20251;-88
2023/08/25 06:31:33;;;;;;;5.83;5.23;;;19.30;99.90;;;;;;4863415;29;20256;-88
2023/08/25 06:34:02;;;;;;;8.50;5.63;;;19.40;99.90;;;;;;4863144;29;20196;-88
2023/08/25 06:36:29;;;;;;;5.60;5.03;;;19.50;99.90;;;;;;4862310;29;20184;-88
2023/08/25 06:38:55;;;;;;;6.17;5.20;;;19.50;99.90;;;;;;4862574;29;20407;-87
2023/08/25 06:41:21;;;;;;;5.17;4.57;;;19.60;99.90;;;;;;4861985;29;20432;-88
2023/08/25 06:43:46;;;;;;;4.60;4.20;;;19.60;99.90;;;;;;4860633;29;20532;-89
2023/08/25 06:46:12;;;;;;;8.07;5.10;;;19.60;99.90;;;;;;4861816;29;20540;-89
2023/08/25 06:48:37;;;;;;;4.70;4.30;;;19.50;99.90;;;;;;4860775;29;20192;-88
2023/08/25 06:51:03;;;;;;;6.93;5.17;;;19.50;99.90;;;;;;4861647;29;20275;-88
2023/08/25 06:53:28;;;;;;;6.03;4.60;;;19.60;99.90;;;;;;4861671;29;20240;-88
2023/08/25 06:55:54;;;;;;;6.30;4.37;;;19.70;99.90;;;;;;4861672;29;20694;-88
2023/08/25 06:58:19;;;;;;;5.33;4.83;;;19.90;99.90;;;;;;4861685;29;20218;-88
2023/08/25 07:00:45;;;;;;;5.50;4.17;;;20.00;99.90;;;;;;4861625;29;20189;-90
2023/08/25 07:03:11;;;;;;;6.40;4.63;;;20.10;99.90;;;;;;4861800;29;20224;-89
2023/08/25 07:05:40;;;;;;;5.13;4.63;;;20.10;99.90;;;;;;4862020;29;20196;-89
2023/08/25 07:08:06;;;;;;;4.60;4.13;;;20.10;99.90;;;;;;4861566;29;20327;-89
2023/08/25 07:10:31;;;;;;;8.97;4.77;;;20.10;99.90;;;;;;4869598;29;20455;-89
2023/08/25 07:12:57;;;;;;;7.53;4.83;;;20.10;99.90;;;;;;4861342;29;20546;-89
2023/08/25 07:15:22;;;;;;;5.23;4.20;;;20.10;99.90;;;;;;4864547;29;20188;-89
2023/08/25 07:17:48;;;;;;;4.80;4.17;;;20.10;99.90;;;;;;4863849;29;20622;-89
2023/08/25 07:20:14;;;;;;;4.97;4.47;;;20.10;99.90;;;;;;4865154;29;20176;-89
2023/08/25 07:22:40;;;;;;;11.70;5.47;;;20.30;99.90;;;;;;4865191;29;20196;-88
2023/08/25 07:25:06;;;;;;;7.30;4.53;;;20.50;99.90;;;;;;4864416;29;20691;-89
2023/08/25 07:27:32;;;;;;;5.57;4.87;;;20.70;99.90;;;;;;4865146;29;20423;-89
2023/08/25 07:29:58;;;;;;;5.70;5.20;;;20.90;99.90;;;;;;4865288;29;20516;-89
2023/08/25 07:32:24;;;;;;;8.10;4.57;;;21.00;99.90;;;;;;4865068;29;20630;-89
2023/08/25 07:34:50;;;;;;;5.00;3.50;;;21.20;99.90;;;;;;4878065;29;20475;-89
2023/08/25 07:37:15;;;;;;;6.30;4.67;;;21.10;99.90;;;;;;4870520;29;20235;-89
2023/08/25 07:39:42;;;;;;;5.23;4.10;;;21.00;99.90;;;;;;4865499;29;20180;-89
2023/08/25 07:42:08;;;;;;;4.00;3.70;;;21.00;99.90;;;;;;4865208;29;20186;-89
2023/08/25 07:44:35;;;;;;;7.40;3.77;;;21.10;99.90;;;;;;4865276;29;20512;-89
2023/08/25 07:47:01;;;;;;;6.60;3.30;;;21.10;99.90;;;;;;4865401;29;20758;-89
2023/08/25 07:49:26;;;;;;;6.20;3.87;;;21.20;99.90;;;;;;4863472;29;20440;-89
2023/08/25 07:51:52;;;;;;;4.43;3.33;;;21.20;99.90;;;;;;4865022;29;20540;-89
2023/08/25 07:54:18;;;;;;;5.27;4.07;;;21.20;99.90;;;;;;4848188;29;20192;-89
2023/08/25 07:56:43;;;;;;;5.10;3.67;;;21.30;99.90;;;;;;4864376;29;20228;-88
2023/08/25 07:59:10;;;;;;;5.97;3.67;;;21.20;99.90;;;;;;4864369;29;20184;-87
2023/08/25 08:01:35;;;;;;;4.47;4.07;;;21.00;99.90;;;;;;4863688;29;20298;-86
2023/08/25 08:04:01;;;;;;;5.37;3.83;;;20.80;99.90;;;;;;4863645;29;20443;-86
2023/08/25 08:06:27;;;;;;;7.33;5.17;;;20.70;99.90;;;;;;4863131;29;20279;-86
2023/08/25 08:08:52;;;;;;;7.10;4.80;;;20.40;99.90;;;;;;4862702;29;20339;-86
2023/08/25 08:11:18;;;;;;;7.47;4.60;;;20.30;99.90;;;;;;4863044;29;20192;-85
2023/08/25 08:13:44;;;;;;;5.90;5.03;;;20.30;99.90;;;;;;4862962;29;20215;-85
2023/08/25 08:16:09;;;;;;;7.33;4.90;;;20.10;99.90;;;;;;4863824;29;20184;-85
2023/08/25 08:18:35;;;;;;;5.90;5.30;;;20.10;99.90;;;;;;4864137;29;20619;-86
2023/08/25 08:21:01;;;;;;;9.37;5.23;;;20.00;99.90;;;;;;4863780;29;20216;-86
2023/08/25 08:23:27;;;;;;;10.43;4.77;;;19.90;99.90;;;;;;4864052;29;20689;-85
2023/08/25 08:25:54;;;;;;;6.13;5.03;;;19.90;99.90;;;;;;4861532;29;20432;-86
2023/08/25 08:28:19;;;;;;;11.80;6.83;;;19.90;99.90;;;;;;4863434;29;20667;-87
2023/08/25 08:30:45;;;;;;;7.33;6.60;;;19.90;99.90;;;;;;4864150;29;20396;-90
2023/08/25 08:33:11;;;;;;;12.37;7.57;;;19.90;99.90;;;;;;4864015;29;20282;-93
2023/08/25 08:35:40;;;;;;;11.93;7.47;;;19.90;99.90;;;;;;4864907;29;20180;-94
2023/08/25 08:38:05;;;;;;;14.10;7.40;;;19.80;99.90;;;;;;4866682;29;20180;-92
2023/08/25 08:40:32;;;;;;;10.97;6.57;;;19.80;99.90;;;;;;4863302;29;20432;-92
2023/08/25 08:43:02;;;;;;;8.97;6.60;;;19.60;99.90;;;;;;4864528;29;20908;-95
2023/08/25 08:45:34;;;;;;;8.50;6.80;;;19.60;99.90;;;;;;4879948;29;20417;-95
2023/08/25 08:48:06;;;;;;;8.13;6.30;;;19.50;99.90;;;;;;4876156;29;20476;-95
2023/08/25 08:50:33;;;;;;;13.30;7.43;;;19.50;99.90;;;;;;4855588;29;20523;-95
2023/08/25 08:53:01;;;;;;;9.27;8.37;;;19.60;99.90;;;;;;4872125;29;20419;-95
2023/08/25 08:55:32;;;;;;;11.43;7.60;;;19.90;99.90;;;;;;4879278;29;20457;-96
2023/08/25 08:57:58;;;;;;;11.07;7.87;;;20.10;99.90;;;;;;4880735;29;20413;-96
2023/08/25 09:00:24;;;;;;;11.23;8.50;;;20.40;99.90;;;;;;4877010;29;20404;-95
2023/08/25 09:02:53;;;;;;;10.97;9.77;;;20.80;99.90;;;;;;4867359;29;20247;-94
2023/08/25 09:05:27;;;;;;;10.90;8.63;;;21.10;99.90;;;;;;4849023;29;20420;-94
2023/08/25 09:07:59;;;;;;;10.30;9.30;;;21.30;99.90;;;;;;4863168;29;20447;-93
2023/08/25 09:10:26;;;;;;;13.77;8.80;;;21.60;99.90;;;;;;4863756;29;20403;-93
2023/08/25 09:12:52;;;;;;;9.57;7.50;;;21.70;99.90;;;;;;4862723;29;20829;-93
2023/08/25 09:15:26;;;;;;;10.63;7.10;;;21.70;99.90;;;;;;4864033;29;20427;-91
2023/08/25 09:18:08;;;;;;;6.93;6.23;;;21.40;99.90;;;;;;4864289;29;20182;-93
2023/08/25 09:20:40;;;;;;;6.57;5.83;;;21.50;99.90;;;;;;4863691;29;20419;-92
2023/08/25 09:23:08;;;;;;;8.57;5.50;;;21.70;99.90;;;;;;4863153;29;20468;-93
2023/08/25 09:25:33;;;;;;;6.53;5.93;;;22.00;99.90;;;;;;4863274;29;20463;-95
2023/08/25 09:28:03;;;;;;;6.17;4.80;;;22.20;99.90;;;;;;4865949;29;20413;-95
2023/08/25 09:30:37;;;;;;;9.27;5.57;;;22.60;99.90;;;;;;4863738;29;20185;-94
2023/08/25 09:33:07;;;;;;;5.70;4.63;;;22.60;99.90;;;;;;4865237;29;20412;-94
2023/08/25 09:35:33;;;;;;;5.07;4.17;;;22.80;99.90;;;;;;4867736;29;20406;-95
2023/08/25 09:38:00;;;;;;;5.80;4.07;;;22.50;99.90;;;;;;4873130;29;20421;-95
2023/08/25 09:40:27;;;;;;;6.43;4.73;;;22.40;99.90;;;;;;4869833;29;20515;-95
2023/08/25 09:42:59;;;;;;;6.57;4.43;;;22.40;99.90;;;;;;4866688;29;20425;-94
2023/08/25 09:45:29;;;;;;;6.73;5.27;;;22.30;99.90;;;;;;4867676;29;20437;-94
2023/08/25 09:48:14;;;;;;;5.83;5.13;;;22.30;99.90;;;;;;4866624;29;21005;-95
2023/08/25 09:50:42;;;;;;;7.03;6.00;;;22.20;99.90;;;;;;4866706;29;20408;-94
2023/08/25 09:53:09;;;;;;;5.20;4.70;;;22.30;99.90;;;;;;4865523;29;20755;-95
2023/08/25 09:55:36;;;;;;;6.83;4.80;;;22.40;99.90;;;;;;4865324;29;20418;-94
2023/08/25 09:58:07;;;;;;;7.57;5.43;;;22.50;99.90;;;;;;4866306;29;20762;-94
2023/08/25 10:00:40;;;;;;;5.60;4.90;;;22.70;99.90;;;;;;4867620;29;20949;-95
2023/08/25 10:03:10;;;;;;;9.40;5.80;;;22.80;99.90;;;;;;4866771;29;20410;-95
2023/08/25 10:05:37;;;;;;;7.47;4.93;;;23.00;99.90;;;;;;4864005;29;20892;-94
2023/08/25 10:08:06;;;;;;;8.10;6.00;;;23.10;99.90;;;;;;4865899;29;20500;-95
2023/08/25 10:10:35;;;;;;;7.13;6.07;;;23.00;99.90;;;;;;4864080;29;20930;-95
2023/08/25 10:13:03;;;;;;;10.57;6.37;;;22.90;99.90;;;;;;4863251;29;20466;-94
2023/08/25 10:15:31;;;;;;;6.40;5.80;;;23.00;99.90;;;;;;4864006;29;20418;-95
2023/08/25 10:18:01;;;;;;;13.40;8.47;;;22.90;99.90;;;;;;4871986;29;20428;-92
2023/08/25 10:20:29;;;;;;;10.70;7.83;;;22.70;99.90;;;;;;4863451;29;20418;-93
2023/08/25 10:22:57;;;;;;;10.97;6.97;;;22.40;99.90;;;;;;4862647;29;20403;-92
2023/08/25 10:25:27;;;;;;;11.00;9.83;;;22.40;99.90;;;;;;4870384;29;20411;-92
2023/08/25 10:27:54;;;;;;;10.70;9.70;;;22.30;99.90;;;;;;4863910;29;20410;-92
2023/08/25 10:30:21;;;;;;;10.03;8.93;;;22.10;99.90;;;;;;4864019;29;20785;-91
2023/08/25 10:33:05;;;;;;;13.53;9.60;;;21.80;99.90;;;;;;4864603;29;20500;-90
2023/08/25 10:35:38;;;;;;;11.13;10.13;;;21.60;99.90;;;;;;4862546;29;20921;-91
2023/08/25 10:38:04;;;;;;;10.97;9.37;;;21.40;99.90;;;;;;4861318;29;20923;-89
2023/08/25 10:40:41;;;;;;;17.50;9.77;;;21.20;99.90;;;;;;4862099;29;20403;-90
2023/08/25 10:43:06;;;;;;;18.37;11.70;;;20.90;99.90;;;;;;4863545;29;20839;-95
2023/08/25 10:45:36;;;;;;;16.57;9.70;;;20.60;99.90;;;;;;4862262;29;20543;-90
2023/08/25 10:48:02;;;;;;;22.53;10.33;;;20.30;99.90;;;;;;4861297;29;20662;-93
2023/08/25 10:50:27;;;;;;;12.13;7.00;;;20.30;99.90;;;;;;4861518;29;20415;-92
2023/08/25 10:52:54;;;;;;;10.80;5.63;;;20.10;99.90;;;;;;4862526;29;20184;-93
2023/08/25 10:55:32;;;;;;;8.27;5.53;;;20.10;99.90;;;;;;4862383;29;20188;-92
2023/08/25 10:58:06;;;;;;;9.00;6.97;;;20.10;99.90;;;;;;4861748;29;20403;-95
2023/08/25 11:00:38;;;;;;;12.63;7.90;;;20.10;99.90;;;;;;4861662;29;20435;-91
2023/08/25 11:03:04;;;;;;;8.57;7.80;;;20.10;99.90;;;;;;4862418;29;20376;-92
2023/08/25 11:05:41;;;;;;;8.43;7.63;;;20.10;99.90;;;;;;4864190;29;20403;-92
2023/08/25 11:08:43;;;;;;;8.33;7.47;;;20.00;99.90;;;;;;4862101;29;20996;-92
2023/08/25 11:11:15;;;;;;;9.57;7.87;;;19.90;99.90;;;;;;4787401;29;20797;-92
2023/08/25 11:13:42;;;;;;;9.33;8.43;;;20.10;99.90;;;;;;4850314;29;20429;-92
2023/08/25 11:16:10;;;;;;;9.43;8.63;;;20.30;99.90;;;;;;4863111;29;20541;-93
2023/08/25 11:18:38;;;;;;;12.07;11.07;;;20.50;99.90;;;;;;4865059;29;20460;-92
2023/08/25 11:21:04;;;;;;;12.90;11.80;;;20.70;99.90;;;;;;4864862;29;20431;-92
2023/08/25 11:23:37;;;;;;;14.00;12.60;;;20.60;99.90;;;;;;4866108;29;20431;-91
2023/08/25 11:26:02;;;;;;;12.57;11.23;;;20.90;99.90;;;;;;4862040;29;20761;-91
2023/08/25 11:28:28;;;;;;;12.50;11.43;;;20.80;99.90;;;;;;4861384;29;20413;-91
2023/08/25 11:30:54;;;;;;;10.90;9.80;;;21.00;99.90;;;;;;4861837;29;20176;-91
2023/08/25 11:33:20;;;;;;;11.53;10.27;;;21.00;99.90;;;;;;4861510;29;20267;-91
2023/08/25 11:35:46;;;;;;;12.00;10.53;;;21.10;99.90;;;;;;4861496;29;20268;-91
2023/08/25 11:38:14;;;;;;;12.63;10.77;;;21.20;99.90;;;;;;4861321;29;20453;-91
2023/08/25 11:40:40;;;;;;;14.10;9.87;;;21.20;99.90;;;;;;4862418;29;20204;-92
2023/08/25 11:43:06;;;;;;;8.90;8.00;;;21.20;99.90;;;;;;4862887;29;20424;-94
2023/08/25 11:45:32;;;;;;;8.43;7.63;;;21.10;99.90;;;;;;4863892;29;20188;-95
2023/08/25 11:47:57;;;;;;;8.73;7.70;;;21.00;99.90;;;;;;4861383;29;20188;-92
2023/08/25 11:50:24;;;;;;;10.30;7.97;;;20.90;99.90;;;;;;4862527;29;20424;-93
2023/08/25 11:52:50;;;;;;;9.13;8.33;;;20.90;99.90;;;;;;4861448;29;20188;-93
2023/08/25 11:55:16;;;;;;;9.33;7.70;;;20.90;99.90;;;;;;4860785;29;20956;-93
2023/08/25 11:57:41;;;;;;;10.17;9.10;;;20.90;99.90;;;;;;4860655;29;20184;-94
2023/08/25 12:00:10;;;;;;;10.10;9.10;;;21.00;99.90;;;;;;4861211;29;20630;-94
2023/08/25 12:02:36;;;;;;;10.53;9.37;;;21.10;99.90;;;;;;4865493;29;20212;-95
2023/08/25 12:05:04;;;;;;;9.73;8.73;;;21.10;99.90;;;;;;4864245;29;20492;-94
2023/08/25 12:07:31;;;;;;;11.20;8.90;;;21.30;99.90;;;;;;4864258;29;20956;-95
2023/08/25 12:10:01;;;;;;;10.90;9.83;;;21.30;99.90;;;;;;4864591;29;20404;-95
2023/08/25 12:12:37;;;;;;;12.43;10.37;;;21.40;99.90;;;;;;4864396;29;20418;-93
2023/08/25 12:15:09;;;;;;;9.73;8.77;;;21.50;99.90;;;;;;4870567;29;20420;-94
2023/08/25 12:17:36;;;;;;;9.83;8.93;;;21.50;99.90;;;;;;4869798;29;20425;-95
2023/08/25 12:20:11;;;;;;;10.20;8.20;;;21.60;99.90;;;;;;4863300;29;20449;-91
2023/08/25 12:22:56;;;;;;;10.37;8.80;;;21.70;99.90;;;;;;4865043;29;20771;-95
2023/08/25 12:25:22;;;;;;;11.23;8.40;;;21.80;99.90;;;;;;4848560;29;20480;-95
2023/08/25 12:27:51;;;;;;;9.50;8.67;;;21.70;99.90;;;;;;4863872;29;20451;-94
2023/08/25 12:30:17;;;;;;;13.27;8.80;;;21.80;99.90;;;;;;4864934;29;20517;-94
2023/08/25 12:32:43;;;;;;;9.27;8.23;;;21.80;99.90;;;;;;4865005;29;20464;-95
2023/08/25 12:35:09;;;;;;;7.90;7.23;;;21.80;99.90;;;;;;4863935;29;20480;-95
2023/08/25 12:37:34;;;;;;;8.43;7.60;;;21.90;99.90;;;;;;4866221;29;20395;-95
2023/08/25 12:40:00;;;;;;;7.83;7.13;;;21.90;99.90;;;;;;4864017;29;20180;-95
2023/08/25 12:42:26;;;;;;;9.03;8.13;;;21.70;99.90;;;;;;4863658;29;20246;-95
2023/08/25 12:44:51;;;;;;;8.30;7.57;;;21.70;99.90;;;;;;4864533;29;20212;-95